Terminal Aerodrome Forecast
Issued by NWS Atlanta, GA

Home | Current Version | Previous Version | Text Only | Print | Product List | Glossary On
Versions: 1 2 3 4 5 6 7 8 9 10 11 12 13
000
FTUS42 KFFC 301729
TAFCSG
TAF
KCSG 301729Z 3018/3118 14006KT P6SM SCT050
     FM310100 12003KT P6SM FEW060 SCT250
     FM310900 00000KT P6SM BKN012
     FM311500 14004KT P6SM BKN025
     FM311700 17005KT P6SM VCSH SCT035 BKN050 PROB30 3117/3118 3SM
      TSRA BKN025CB=

USA.gov is the U.S. government's official web portal to all federal, state and local government web resources and services.